Time;durP1;ratioP1;P1;durP2;ratioP2;P2;SDS_P1;SDS_P2;PMS_P1;PMS_P2;Temp;Humidity;BMP_temperature;BMP_pressure;BME280_temperature;BME280_humidity;BME280_pressure;Samples;Min_cycle;Max_cycle;Signal;HPM_P1;HPM_P2
2020/12/16 00:00:51;;;;;;;18.05;11.35;;;7.00;99.90;;;7.90;93.80;100672.59;4975530;28;20439;-83
2020/12/16 00:03:17;;;;;;;18.80;11.50;;;6.80;99.90;;;7.69;94.02;100679.31;4976798;28;20106;-83
2020/12/16 00:05:44;;;;;;;20.58;12.93;;;6.60;99.90;;;7.53;94.58;100676.34;4975615;28;20054;-83
2020/12/16 00:08:12;;;;;;;17.35;11.77;;;6.50;99.90;;;7.36;94.62;100668.09;4974589;28;20023;-83
2020/12/16 00:10:40;;;;;;;17.13;11.45;;;6.30;99.90;;;7.18;94.72;100669.34;4974991;28;20026;-83
2020/12/16 00:13:10;;;;;;;19.55;12.75;;;6.10;99.90;;;7.08;95.05;100673.31;4975518;28;20046;-83
2020/12/16 00:15:39;;;;;;;19.80;12.65;;;6.10;99.90;;;6.95;94.74;100666.03;4976617;28;20031;-83
2020/12/16 00:18:05;;;;;;;21.77;13.20;;;5.90;99.90;;;6.77;95.74;100670.03;4974903;28;20062;-82
2020/12/16 00:20:31;;;;;;;24.63;15.38;;;5.80;99.90;;;6.87;96.51;100670.47;4972481;28;20023;-83
2020/12/16 00:22:57;;;;;;;33.90;17.90;;;5.90;99.90;;;7.07;96.69;100673.66;4966630;28;20031;-83
2020/12/16 00:25:23;;;;;;;25.70;15.55;;;6.00;99.90;;;7.06;96.15;100678.41;4976364;28;20037;-83
2020/12/16 00:27:49;;;;;;;24.17;13.95;;;6.00;99.90;;;6.94;96.06;100680.22;4976485;28;20382;-83
2020/12/16 00:30:15;;;;;;;22.77;12.85;;;5.90;99.90;;;6.78;95.87;100677.19;4975241;28;20039;-83
2020/12/16 00:32:43;;;;;;;22.63;13.75;;;5.80;99.90;;;6.62;95.61;100682.47;4975429;28;20043;-82
2020/12/16 00:35:10;;;;;;;20.90;12.65;;;5.60;99.90;;;6.47;95.67;100679.41;4966044;28;20034;-83
2020/12/16 00:37:42;;;;;;;24.45;13.52;;;5.50;99.90;;;6.36;96.06;100684.50;4976230;28;20054;-82
2020/12/16 00:40:13;;;;;;;26.13;14.63;;;5.40;99.90;;;6.36;96.30;100693.63;4977974;28;20027;-83
2020/12/16 00:42:52;;;;;;;23.13;14.65;;;5.30;99.90;;;6.30;95.71;100691.34;4975226;28;20034;-83
2020/12/16 00:45:20;;;;;;;23.90;13.70;;;5.30;99.90;;;6.18;96.02;100694.81;4978183;28;20085;-83
2020/12/16 00:47:46;;;;;;;21.38;13.57;;;5.20;99.90;;;6.07;96.02;100696.28;4977023;28;20117;-83
2020/12/16 00:50:12;;;;;;;31.80;16.17;;;5.10;99.90;;;5.95;96.74;100698.06;4976825;28;20027;-83
2020/12/16 00:52:38;;;;;;;35.13;17.55;;;5.00;99.90;;;6.00;97.58;100697.91;4977369;28;20406;-83
2020/12/16 00:55:05;;;;;;;32.83;18.52;;;5.00;99.90;;;6.05;97.55;100694.97;4978104;28;20031;-83
2020/12/16 00:57:33;;;;;;;32.20;18.40;;;5.10;99.90;;;6.09;97.29;100701.50;4977333;28;20019;-83
2020/12/16 01:00:06;;;;;;;32.67;17.60;;;5.10;99.90;;;6.17;97.53;100703.44;4978411;28;20542;-83
2020/12/16 01:03:03;;;;;;;48.72;24.15;;;5.20;99.90;;;6.28;97.82;100701.97;4978291;28;20034;-83
2020/12/16 01:05:28;;;;;;;40.80;20.08;;;5.30;99.90;;;6.41;97.68;100705.72;4956546;28;20033;-83
2020/12/16 01:07:54;;;;;;;43.53;20.38;;;5.40;99.90;;;6.55;98.07;100714.66;4973799;28;20026;-85
2020/12/16 01:10:21;;;;;;;43.65;22.60;;;5.50;99.90;;;6.58;98.11;100714.81;4975227;28;20027;-85
2020/12/16 01:12:48;;;;;;;42.55;20.90;;;5.60;99.90;;;6.65;98.15;100719.84;4958497;28;20129;-83
2020/12/16 01:15:21;;;;;;;36.30;19.35;;;5.60;99.90;;;6.75;97.76;100719.50;4974944;28;20049;-84
2020/12/16 01:17:50;;;;;;;43.60;21.38;;;5.70;99.90;;;6.84;98.16;100717.50;4973939;28;20030;-83
2020/12/16 01:20:16;;;;;;;36.40;18.90;;;5.80;99.90;;;6.95;97.59;100723.53;4974029;28;20034;-83
2020/12/16 01:22:47;;;;;;;29.88;17.15;;;5.90;99.90;;;6.97;97.75;100724.03;4957604;28;20070;-84
2020/12/16 01:25:20;;;;;;;29.75;16.88;;;5.90;99.90;;;7.00;97.59;100726.13;4957917;28;20402;-85
2020/12/16 01:28:01;;;;;;;30.13;15.80;;;5.90;99.90;;;7.01;97.76;100724.97;4974304;28;20031;-84
2020/12/16 01:30:29;;;;;;;32.80;17.35;;;5.90;99.90;;;7.01;97.69;100724.97;4975923;28;20490;-84
2020/12/16 01:32:57;;;;;;;31.98;17.90;;;5.90;99.90;;;7.05;97.72;100732.31;4959205;28;20418;-85
2020/12/16 01:35:26;;;;;;;31.27;18.65;;;6.00;99.90;;;7.05;97.79;100726.75;4977218;28;20031;-85
2020/12/16 01:37:55;;;;;;;38.25;19.88;;;6.00;99.90;;;7.10;97.78;100729.34;4980769;28;20038;-85
2020/12/16 01:40:22;;;;;;;39.85;19.73;;;6.00;99.90;;;7.19;97.94;100741.22;4985632;28;20031;-84
2020/12/16 01:42:48;;;;;;;39.10;20.42;;;6.10;99.90;;;7.28;97.76;100736.47;4987651;28;20030;-85
2020/12/16 01:45:22;;;;;;;41.08;21.75;;;6.20;99.90;;;7.34;97.75;100740.69;4988362;28;20037;-84
2020/12/16 01:47:50;;;;;;;45.75;22.38;;;6.30;99.90;;;7.35;98.09;100745.06;4985056;28;20073;-83
2020/12/16 01:50:16;;;;;;;45.33;21.80;;;6.30;99.90;;;7.37;98.44;100741.97;4970474;28;20057;-82
2020/12/16 01:52:45;;;;;;;50.92;23.83;;;6.30;99.90;;;7.41;98.36;100740.97;4991244;23;20041;-83
2020/12/16 01:55:12;;;;;;;54.08;25.08;;;6.40;99.90;;;7.43;98.99;100744.22;4982908;28;20121;-81
2020/12/16 01:57:45;;;;;;;70.53;30.38;;;6.50;99.90;;;7.61;100.00;100756.06;4999588;28;20031;-81
2020/12/16 02:00:13;;;;;;;67.55;31.13;;;6.70;99.90;;;7.80;100.00;100750.06;4999624;28;20167;-84
2020/12/16 02:02:55;;;;;;;63.88;28.58;;;6.80;99.90;;;7.95;99.39;100749.47;5000571;28;20030;-83
2020/12/16 02:05:24;;;;;;;58.67;27.48;;;6.90;99.90;;;7.93;98.91;100751.75;4982480;28;20081;-83
2020/12/16 02:07:56;;;;;;;57.30;26.52;;;6.90;99.90;;;7.94;98.69;100743.09;4999673;28;20137;-83
2020/12/16 02:10:21;;;;;;;55.25;27.70;;;6.90;99.90;;;7.97;98.63;100741.59;5000636;28;20054;-82
2020/12/16 02:12:48;;;;;;;53.55;27.65;;;6.90;99.90;;;7.99;98.70;100721.81;4996332;28;20482;-83
2020/12/16 02:15:14;;;;;;;56.47;25.98;;;7.00;99.90;;;8.00;98.64;100728.97;4980634;28;20031;-83
2020/12/16 02:17:41;;;;;;;55.42;26.58;;;7.00;99.90;;;7.99;99.00;100721.81;4988958;28;20100;-83
2020/12/16 02:20:08;;;;;;;54.72;26.15;;;7.00;99.90;;;8.04;98.86;100727.16;5001459;28;20029;-83
2020/12/16 02:22:36;;;;;;;53.75;25.88;;;7.00;99.90;;;8.03;98.46;100731.09;4983825;28;20038;-83
2020/12/16 02:25:10;;;;;;;50.92;26.30;;;7.00;99.90;;;7.95;98.10;100730.00;4984173;28;20031;-83
2020/12/16 02:27:39;;;;;;;41.60;22.90;;;7.00;99.90;;;7.90;97.79;100732.97;5002827;28;20015;-83
2020/12/16 02:30:11;;;;;;;55.03;26.02;;;6.90;99.90;;;7.75;98.59;100726.06;4984139;28;20034;-82
2020/12/16 02:32:39;;;;;;;51.75;25.40;;;6.80;99.90;;;7.76;98.52;100736.03;5000593;28;20027;-83
2020/12/16 02:35:08;;;;;;;58.22;27.75;;;6.80;99.90;;;7.68;99.12;100731.31;4998524;28;20034;-83
2020/12/16 02:37:34;;;;;;;59.28;27.55;;;6.80;99.90;;;7.79;98.91;100731.75;4999399;28;20065;-83
2020/12/16 02:40:00;;;;;;;54.72;26.67;;;6.80;99.90;;;7.75;98.51;100733.56;5000832;28;20038;-83
2020/12/16 02:42:30;;;;;;;57.80;27.92;;;6.80;99.90;;;7.71;99.44;100733.44;5000621;28;20026;-83
2020/12/16 02:44:57;;;;;;;53.35;25.45;;;6.80;99.90;;;7.75;98.91;100734.41;5000652;28;20054;-83
2020/12/16 02:47:24;;;;;;;56.92;25.80;;;6.70;99.90;;;7.61;98.84;100736.59;4983335;28;20023;-83
2020/12/16 02:49:51;;;;;;;45.42;24.02;;;6.70;99.90;;;7.55;98.56;100742.69;4997707;28;20037;-82
2020/12/16 02:52:17;;;;;;;41.88;20.58;;;6.60;99.90;;;7.45;97.66;100732.75;4999740;28;20080;-83
2020/12/16 02:54:44;;;;;;;36.40;19.30;;;6.40;99.90;;;7.35;97.80;100744.28;4983539;28;20063;-83
2020/12/16 02:57:10;;;;;;;35.45;18.75;;;6.30;99.90;;;7.13;96.68;100744.53;4999552;28;20030;-83
2020/12/16 02:59:36;;;;;;;29.45;17.75;;;6.10;99.90;;;6.93;96.52;100734.16;5000997;28;20037;-83
2020/12/16 03:02:02;;;;;;;31.95;16.83;;;5.90;99.90;;;6.77;97.12;100740.25;5001197;28;20540;-83
2020/12/16 03:04:28;;;;;;;36.40;18.65;;;5.80;99.90;;;6.69;97.69;100738.31;5001835;28;20026;-82
2020/12/16 03:06:57;;;;;;;37.72;19.33;;;5.70;99.90;;;6.65;97.22;100742.03;4996027;28;20189;-83
2020/12/16 03:09:26;;;;;;;33.95;17.55;;;5.60;99.90;;;6.59;97.30;100746.16;4996041;28;20022;-82
2020/12/16 03:11:55;;;;;;;39.38;20.08;;;5.60;99.90;;;6.52;97.57;100734.75;4997061;28;20050;-82
2020/12/16 03:14:23;;;;;;;49.08;24.08;;;5.50;99.90;;;6.52;98.80;100734.75;4978885;28;20045;-82
2020/12/16 03:16:54;;;;;;;65.93;26.90;;;5.50;99.90;;;6.60;98.96;100745.81;4995392;28;20030;-82
2020/12/16 03:19:20;;;;;;;63.10;26.92;;;5.60;99.90;;;6.71;98.75;100754.63;4997036;28;20066;-84
2020/12/16 03:21:45;;;;;;;77.63;30.65;;;5.70;99.90;;;6.80;99.74;100750.69;4977199;28;20614;-84
2020/12/16 03:24:11;;;;;;;82.35;32.17;;;5.80;99.90;;;6.96;99.70;100741.81;4995257;28;20042;-84
2020/12/16 03:26:41;;;;;;;75.57;31.63;;;5.90;99.90;;;7.06;100.00;100733.13;4977794;28;20108;-82
2020/12/16 03:29:07;;;;;;;69.35;29.60;;;6.20;99.90;;;7.16;100.00;100733.56;4994745;28;20029;-83
2020/12/16 03:31:34;;;;;;;76.03;30.67;;;6.20;99.90;;;7.17;100.00;100729.66;4994298;28;20386;-82
2020/12/16 03:34:00;;;;;;;72.75;30.02;;;6.30;99.90;;;7.26;100.00;100740.72;4995138;28;20030;-84
2020/12/16 03:36:26;;;;;;;70.53;29.63;;;6.30;99.90;;;7.29;99.69;100735.31;4995425;28;20022;-84
2020/12/16 03:38:52;;;;;;;60.65;25.88;;;6.30;99.90;;;7.26;99.45;100735.16;4996845;28;20477;-83
2020/12/16 03:41:18;;;;;;;50.60;24.45;;;6.30;99.90;;;7.21;99.06;100730.63;4979689;28;20027;-82
2020/12/16 03:43:49;;;;;;;40.47;20.10;;;6.20;99.90;;;7.03;98.40;100729.03;4992038;28;20031;-83
2020/12/16 03:46:17;;;;;;;37.90;19.52;;;6.10;99.90;;;6.88;98.67;100735.13;4980314;28;20082;-82
2020/12/16 03:48:44;;;;;;;41.08;20.10;;;5.90;99.90;;;6.81;98.83;100730.09;4995584;28;20034;-82
2020/12/16 03:51:15;;;;;;;51.65;23.55;;;5.80;99.90;;;6.71;98.63;100730.44;4995585;28;20044;-82
2020/12/16 03:53:42;;;;;;;45.85;21.70;;;5.70;99.90;;;6.66;98.89;100740.91;4995612;28;20038;-82
2020/12/16 03:56:14;;;;;;;41.78;20.95;;;5.70;99.90;;;6.61;98.96;100739.16;4995851;28;20023;-82
2020/12/16 03:58:47;;;;;;;44.55;21.52;;;5.60;99.90;;;6.56;98.91;100747.63;4998205;28;20085;-83
2020/12/16 04:01:18;;;;;;;70.22;26.92;;;5.50;99.90;;;6.58;99.77;100744.53;4997474;28;20023;-83
2020/12/16 04:03:45;;;;;;;80.63;28.42;;;5.60;99.90;;;6.79;100.00;100739.91;4994183;28;20026;-82
2020/12/16 04:06:13;;;;;;;85.20;30.10;;;5.80;99.90;;;6.97;100.00;100730.38;4997962;28;20061;-83
2020/12/16 04:08:41;;;;;;;81.85;29.15;;;6.00;99.90;;;7.13;100.00;100736.19;4995850;28;20030;-83
2020/12/16 04:11:18;;;;;;;76.55;30.77;;;6.10;99.90;;;7.21;100.00;100729.78;4996379;28;20034;-83
2020/12/16 04:13:45;;;;;;;77.22;29.00;;;6.20;99.90;;;7.17;100.00;100726.88;4981176;28;20035;-83
2020/12/16 04:16:20;;;;;;;73.38;27.02;;;6.20;99.90;;;7.23;100.00;100721.94;4998076;28;20030;-83
2020/12/16 04:18:49;;;;;;;66.93;26.60;;;6.20;99.90;;;7.20;100.00;100723.41;4998890;28;20033;-82
2020/12/16 04:21:19;;;;;;;86.25;30.85;;;6.20;99.90;;;7.25;100.00;100705.75;4997578;28;20029;-83
2020/12/16 04:23:46;;;;;;;71.85;29.08;;;6.40;99.90;;;7.36;100.00;100705.03;5001143;28;20030;-81
2020/12/16 04:26:13;;;;;;;81.43;29.60;;;6.40;99.90;;;7.30;99.91;100708.34;5007377;28;20086;-81
2020/12/16 04:28:40;;;;;;;78.07;30.48;;;6.40;99.90;;;7.31;100.00;100708.03;5004459;28;20023;-82
2020/12/16 04:31:11;;;;;;;73.22;29.13;;;6.40;99.90;;;7.35;100.00;100702.59;4998513;28;20027;-83
2020/12/16 04:33:38;;;;;;;69.97;28.13;;;6.40;99.90;;;7.38;100.00;100701.94;4999248;28;20466;-82
2020/12/16 04:36:04;;;;;;;54.28;24.67;;;6.40;99.90;;;7.34;99.48;100703.75;5002019;28;20064;-83
2020/12/16 04:38:30;;;;;;;57.88;23.60;;;6.30;99.90;;;7.26;99.88;100713.75;5001085;28;20164;-83
2020/12/16 04:40:56;;;;;;;44.60;21.48;;;6.20;99.90;;;7.24;99.22;100713.28;5002996;28;20121;-83
2020/12/16 04:43:24;;;;;;;37.47;19.73;;;6.20;99.90;;;6.99;96.91;100725.31;5008743;28;20027;-84
2020/12/16 04:45:52;;;;;;;36.90;19.10;;;5.90;99.90;;;6.68;95.58;100733.88;5010368;28;20070;-84
2020/12/16 04:48:20;;;;;;;31.42;17.17;;;5.60;99.90;;;6.34;96.74;100723.66;5001720;28;20442;-83
2020/12/16 04:50:47;;;;;;;28.75;16.50;;;5.30;99.90;;;6.03;96.85;100722.22;4982093;28;20054;-83
2020/12/16 04:53:19;;;;;;;32.50;16.70;;;5.00;99.90;;;5.78;96.53;100721.00;4999298;28;20069;-82
2020/12/16 04:55:47;;;;;;;31.55;15.80;;;4.80;99.90;;;5.62;97.54;100719.88;4983982;28;20110;-83
2020/12/16 04:58:13;;;;;;;38.22;18.05;;;4.60;99.90;;;5.60;97.78;100725.72;5004989;28;20034;-84
2020/12/16 05:00:39;;;;;;;48.08;21.00;;;4.60;99.90;;;5.75;98.75;100718.88;5005028;28;20027;-84
2020/12/16 05:03:10;;;;;;;56.78;23.30;;;4.70;99.90;;;5.93;98.74;100720.59;5006258;28;20094;-82
2020/12/16 05:05:37;;;;;;;55.15;23.48;;;4.90;99.90;;;6.07;98.85;100737.06;5005603;28;20022;-83
2020/12/16 05:08:15;;;;;;;41.72;19.42;;;5.00;99.90;;;6.07;98.37;100735.09;5007357;28;20033;-83
2020/12/16 05:10:47;;;;;;;52.13;21.88;;;5.10;99.90;;;5.96;98.51;100727.44;4999606;28;20041;-84
2020/12/16 05:13:19;;;;;;;36.47;18.30;;;5.00;99.90;;;5.75;98.27;100728.03;4999203;28;20030;-83
2020/12/16 05:15:49;;;;;;;55.03;22.10;;;4.80;99.90;;;5.72;99.15;100720.34;5004951;28;20097;-83
2020/12/16 05:18:22;;;;;;;73.93;25.95;;;4.80;99.90;;;5.97;100.00;100718.81;5004145;28;20035;-83
2020/12/16 05:20:58;;;;;;;90.40;31.40;;;5.00;99.90;;;6.24;100.00;100728.72;5003755;28;20031;-83
2020/12/16 05:23:29;;;;;;;82.28;28.63;;;5.30;99.90;;;6.47;100.00;100724.63;5002123;28;20528;-83
2020/12/16 05:26:06;;;;;;;84.95;29.55;;;5.50;99.90;;;6.71;100.00;100724.09;5000858;28;20026;-83
2020/12/16 05:28:38;;;;;;;85.30;28.33;;;5.70;99.90;;;6.76;100.00;100735.84;5009481;28;20411;-83
2020/12/16 05:31:11;;;;;;;71.03;27.98;;;5.80;99.90;;;6.77;100.00;100742.22;5007222;28;20034;-83
2020/12/16 05:33:42;;;;;;;72.53;27.75;;;5.80;99.90;;;6.76;100.00;100735.03;5008871;28;20050;-83
2020/12/16 05:36:10;;;;;;;72.90;26.92;;;5.80;99.90;;;6.74;100.00;100732.56;5008896;28;20034;-83
2020/12/16 05:38:54;;;;;;;62.67;24.73;;;5.80;99.90;;;6.70;100.00;100728.00;5007982;28;20034;-83
2020/12/16 05:41:31;;;;;;;53.78;22.73;;;5.70;99.90;;;6.65;99.63;100740.09;5001212;28;20035;-84
2020/12/16 05:44:19;;;;;;;41.78;19.83;;;5.60;99.90;;;6.49;99.17;100752.84;5003239;28;20030;-84
2020/12/16 05:46:50;;;;;;;67.13;38.65;;;5.40;99.90;;;6.39;98.52;100752.41;5000860;28;20035;-83
2020/12/16 05:49:27;;;;;;;52.95;26.55;;;5.30;99.90;;;6.18;98.00;100757.78;5002528;28;20038;-84
2020/12/16 05:52:06;;;;;;;34.80;18.27;;;5.10;99.90;;;5.99;96.89;100758.09;4984456;28;20034;-83
2020/12/16 05:54:36;;;;;;;27.38;15.93;;;4.90;99.90;;;5.78;97.10;100760.63;4999717;28;20045;-83
2020/12/16 05:57:29;;;;;;;26.92;15.20;;;4.70;99.90;;;5.49;97.38;100763.16;5002402;28;20117;-84
2020/12/16 06:00:14;;;;;;;28.90;15.85;;;4.50;99.90;;;5.29;97.54;100750.75;4999999;28;20033;-84
2020/12/16 06:02:43;;;;;;;32.42;15.18;;;4.30;99.90;;;5.16;98.00;100746.13;5000505;28;20124;-83
2020/12/16 06:05:16;;;;;;;31.20;16.40;;;4.20;99.90;;;5.11;98.39;100754.56;5000648;28;20080;-83
2020/12/16 06:07:48;;;;;;;36.78;17.85;;;4.10;99.90;;;5.05;98.19;100758.59;4985411;28;20022;-84
2020/12/16 06:10:15;;;;;;;39.42;16.92;;;4.10;99.90;;;5.04;98.36;100758.94;5000921;28;20030;-85
2020/12/16 06:12:44;;;;;;;36.88;16.52;;;4.10;99.90;;;5.02;98.25;100759.25;4999978;28;20030;-85
2020/12/16 06:15:15;;;;;;;39.17;17.75;;;4.00;99.90;;;4.99;98.81;100751.59;5003821;28;20034;-85
2020/12/16 06:17:49;;;;;;;38.97;18.50;;;4.00;99.90;;;5.05;98.41;100758.59;5002268;28;20050;-84
2020/12/16 06:20:18;;;;;;;37.38;17.25;;;4.00;99.90;;;5.00;97.93;100750.47;4997843;28;20037;-83
2020/12/16 06:22:48;;;;;;;35.33;15.30;;;4.10;99.90;;;5.01;98.47;100756.81;4997804;28;20026;-83
2020/12/16 06:25:18;;;;;;;31.42;14.68;;;4.00;99.90;;;4.95;97.93;100747.00;4996553;28;20050;-83
2020/12/16 06:27:48;;;;;;;31.25;16.33;;;4.00;99.90;;;4.84;98.23;100752.00;4997937;28;20027;-83
2020/12/16 06:30:30;;;;;;;43.33;17.58;;;3.90;99.90;;;4.72;98.99;100743.44;4999111;28;20125;-83
2020/12/16 06:33:12;;;;;;;77.03;27.00;;;3.80;99.90;;;4.94;100.00;100739.84;4981307;28;20030;-83
2020/12/16 06:35:41;;;;;;;98.75;31.95;;;4.00;99.90;;;5.37;100.00;100740.81;4996377;28;20065;-83
2020/12/16 06:38:20;;;;;;;110.65;35.42;;;4.40;99.90;;;5.85;100.00;100740.75;4999285;28;20148;-83
2020/12/16 06:40:55;;;;;;;111.13;33.47;;;4.90;99.90;;;6.29;100.00;100746.00;4997940;28;20029;-83
2020/12/16 06:43:42;;;;;;;110.50;32.72;;;5.30;99.90;;;6.46;100.00;100750.72;4998172;28;20371;-83
2020/12/16 06:46:30;;;;;;;77.45;29.30;;;5.50;99.90;;;6.52;100.00;100754.97;4999082;28;20563;-83
2020/12/16 06:49:04;;;;;;;56.10;22.50;;;5.60;99.90;;;6.38;99.88;100764.63;4998245;28;20034;-83
2020/12/16 06:51:41;;;;;;;45.33;20.33;;;5.40;99.90;;;6.18;99.65;100771.63;5000588;28;20079;-83
2020/12/16 06:54:14;;;;;;;43.53;18.80;;;5.20;99.90;;;6.00;99.51;100775.56;4999394;28;20026;-83
2020/12/16 06:56:43;;;;;;;36.00;16.45;;;5.00;99.90;;;5.82;99.15;100771.88;4999560;28;20019;-83
2020/12/16 06:59:46;;;;;;;45.00;18.15;;;4.80;99.90;;;5.71;99.33;100771.41;5000418;28;20025;-83
2020/12/16 07:02:22;;;;;;;34.10;15.88;;;4.70;99.90;;;5.57;99.06;100786.50;5001510;28;20018;-82
2020/12/16 07:04:48;;;;;;;40.15;20.35;;;4.60;99.90;;;5.56;99.07;100785.69;4978896;28;20035;-82
2020/12/16 07:07:55;;;;;;;44.72;19.45;;;4.60;99.90;;;5.61;99.41;100793.88;4994580;28;20497;-82
2020/12/16 07:10:44;;;;;;;56.38;21.05;;;4.60;99.90;;;5.63;100.00;100799.06;4941044;28;20406;-81
2020/12/16 07:13:34;;;;;;;72.22;25.63;;;4.70;99.90;;;5.94;100.00;100801.81;4978275;28;20030;-81
2020/12/16 07:16:10;;;;;;;78.90;26.75;;;5.00;99.90;;;6.18;100.00;100811.28;4997577;28;20070;-81
2020/12/16 07:18:48;;;;;;;87.28;27.83;;;5.20;99.90;;;6.33;100.00;100819.13;4999012;28;20072;-80
2020/12/16 07:21:33;;;;;;;78.32;26.85;;;5.40;99.90;;;6.52;100.00;100816.00;4999621;28;20053;-81
2020/12/16 07:24:11;;;;;;;65.53;26.85;;;5.60;99.90;;;6.69;100.00;100806.88;5002460;28;20471;-81
2020/12/16 07:26:56;;;;;;;72.75;26.05;;;5.80;99.90;;;6.82;100.00;100812.25;5003216;28;20065;-81
2020/12/16 07:29:37;;;;;;;59.83;24.10;;;5.90;99.90;;;6.88;100.00;100804.56;4998166;28;20027;-81
2020/12/16 07:32:08;;;;;;;53.92;21.67;;;6.00;99.90;;;6.88;99.98;100816.47;4998619;28;20023;-80
2020/12/16 07:34:54;;;;;;;45.55;19.83;;;5.80;99.90;;;6.83;99.78;100808.34;4997113;28;20118;-80
2020/12/16 07:37:31;;;;;;;41.47;19.15;;;5.70;99.90;;;6.80;99.38;100810.94;4998429;28;20037;-80
2020/12/16 07:40:04;;;;;;;42.63;19.08;;;5.70;99.90;;;6.83;99.85;100804.75;4998657;28;20033;-80
2020/12/16 07:42:34;;;;;;;40.85;19.10;;;5.70;99.90;;;6.83;99.80;100807.50;4998924;28;20031;-80
2020/12/16 07:45:07;;;;;;;38.95;18.55;;;5.70;99.90;;;6.87;99.62;100802.94;4996801;28;20034;-82
2020/12/16 07:47:33;;;;;;;43.47;20.50;;;5.70;99.90;;;6.85;99.48;100792.16;4998641;28;20039;-80
2020/12/16 07:49:59;;;;;;;39.75;18.70;;;5.80;99.90;;;6.85;99.44;100794.94;4998183;28;20065;-80
2020/12/16 07:52:29;;;;;;;40.10;20.13;;;5.80;99.90;;;6.85;99.34;100803.25;4997725;28;20046;-79
2020/12/16 07:54:57;;;;;;;46.10;19.95;;;5.70;99.90;;;6.88;99.71;100799.00;4983182;28;20486;-82
2020/12/16 07:57:33;;;;;;;44.25;21.50;;;5.80;99.90;;;7.03;99.71;100795.69;4999276;28;20114;-81
2020/12/16 07:59:59;;;;;;;42.60;20.08;;;5.90;99.90;;;7.18;99.56;100802.69;4999256;28;20030;-82
2020/12/16 08:02:25;;;;;;;40.08;19.45;;;6.00;99.90;;;7.27;99.62;100800.69;5000369;28;20158;-80
2020/12/16 08:05:03;;;;;;;38.55;18.08;;;6.10;99.90;;;7.35;99.36;100799.84;4981600;28;20029;-81
2020/12/16 08:07:31;;;;;;;36.13;18.20;;;6.20;99.90;;;7.36;98.96;100793.94;4998612;28;20037;-80
2020/12/16 08:10:00;;;;;;;42.38;19.98;;;6.20;99.90;;;7.49;99.10;100794.06;5003895;28;20037;-81
2020/12/16 08:12:38;;;;;;;41.10;20.40;;;6.30;99.90;;;7.66;98.98;100803.13;5003411;28;20330;-80
2020/12/16 08:15:20;;;;;;;42.08;18.95;;;6.50;99.90;;;7.86;98.68;100796.81;5000945;28;20482;-80
2020/12/16 08:17:51;;;;;;;35.10;17.48;;;6.70;99.90;;;7.99;98.07;100789.38;5002262;28;20027;-79
2020/12/16 08:20:22;;;;;;;41.53;19.10;;;6.80;99.90;;;8.15;98.20;100795.16;5003018;28;20066;-79
2020/12/16 08:22:55;;;;;;;40.00;19.85;;;6.90;99.90;;;8.44;97.62;100800.69;5003028;28;20058;-81
2020/12/16 08:25:23;;;;;;;24.48;14.75;;;7.20;99.90;;;8.52;95.83;100797.00;5002503;28;20057;-79
2020/12/16 08:27:56;;;;;;;25.42;14.68;;;7.30;99.90;;;8.49;95.02;100792.13;5003050;28;20026;-79
2020/12/16 08:30:26;;;;;;;23.30;14.32;;;7.30;99.90;;;8.45;94.23;100791.97;5003162;28;20574;-80
2020/12/16 08:33:15;;;;;;;27.65;15.20;;;7.30;99.90;;;8.74;94.48;100788.28;5003222;28;20034;-80
2020/12/16 08:36:09;;;;;;;23.48;14.27;;;7.50;99.90;;;9.15;94.29;100792.13;5002121;28;20034;-79
2020/12/16 08:38:43;;;;;;;23.55;13.43;;;7.80;99.90;;;9.45;93.31;100782.41;5010874;28;20132;-81
2020/12/16 08:41:29;;;;;;;20.48;13.20;;;8.10;99.90;;;9.60;92.60;100789.28;5010090;28;20026;-81
2020/12/16 08:43:56;;;;;;;20.20;13.30;;;8.30;99.90;;;9.76;91.11;100790.22;5002185;28;20394;-81
2020/12/16 08:46:26;;;;;;;19.88;11.60;;;8.40;99.90;;;9.86;89.50;100789.72;4978899;28;20113;-81
2020/12/16 08:49:04;;;;;;;20.55;12.57;;;8.60;99.90;;;10.08;89.25;100789.25;4997888;28;20030;-81
2020/12/16 08:51:35;;;;;;;18.50;11.63;;;8.80;99.90;;;10.25;88.23;100794.56;5001759;28;20494;-79
2020/12/16 08:54:11;;;;;;;18.23;11.15;;;9.00;99.90;;;10.43;86.73;100800.72;5001893;28;20443;-79
2020/12/16 08:57:02;;;;;;;;;;;9.20;99.90;;;10.74;85.95;100805.59;5004794;28;20030;-79
2020/12/16 08:59:30;;;;;;;12.55;9.02;;;9.40;99.90;;;10.89;84.67;100804.81;4989130;28;19909;-79
2020/12/16 09:02:02;;;;;;;13.45;8.80;;;9.50;99.90;;;11.06;83.58;100798.91;5005150;28;20034;-79
2020/12/16 09:04:39;;;;;;;17.00;10.23;;;9.70;99.90;;;11.29;84.05;100807.53;5004702;28;20084;-79
2020/12/16 09:07:23;;;;;;;14.40;9.07;;;10.00;99.90;;;11.62;83.12;100802.41;5007807;28;20036;-78
2020/12/16 09:09:49;;;;;;;13.93;8.93;;;10.20;99.90;;;11.77;82.37;100798.00;5007495;28;20451;-79
2020/12/16 09:12:22;;;;;;;14.27;9.70;;;10.40;99.90;;;11.82;80.89;100797.72;5008196;28;20058;-80
2020/12/16 09:16:40;;;;;;;;;;;;;;;;;;;;;
2020/12/16 09:21:17;;;;;;;;;;;;;;;;;;;;;
2020/12/16 09:41:17;;;;;;;11.98;8.40;;;10.90;99.90;;;12.32;78.72;100796.88;5185952;23;20050;-82
2020/12/16 10:21:16;;;;;;;;;;;;;;;;;;;;;
2020/12/16 10:27:54;;;;;;;7.00;4.40;;;12.10;99.90;;;13.08;74.12;100763.25;4804821;29;20045;-79
2020/12/16 10:32:27;;;;;;;;;;;;;;;;;;;;;
2020/12/16 10:42:45;;;;;;;5.97;3.85;;;12.30;99.90;;;13.28;74.18;100754.81;5010335;23;20101;-81
2020/12/16 10:45:11;;;;;;;6.45;4.20;;;12.30;99.90;;;13.23;74.23;100749.50;4970161;28;20117;-82
2020/12/16 10:47:37;;;;;;;10.55;4.72;;;12.30;99.90;;;13.12;74.38;100744.53;4980134;28;20121;-81
2020/12/16 10:50:04;;;;;;;6.38;4.22;;;12.30;99.90;;;13.11;75.38;100740.09;4980220;28;20033;-81
2020/12/16 10:52:29;;;;;;;6.05;4.75;;;12.20;99.90;;;13.19;74.57;100738.22;4985324;28;20023;-78
2020/12/16 10:54:55;;;;;;;7.05;4.07;;;12.20;99.90;;;13.11;75.51;100733.66;4988273;28;20479;-80
2020/12/16 10:57:21;;;;;;;8.73;4.82;;;12.20;99.90;;;13.15;75.00;100724.13;4994569;28;20038;-80
2020/12/16 10:59:47;;;;;;;5.75;4.70;;;12.20;99.90;;;13.32;74.39;100724.81;4996860;28;20086;-80
2020/12/16 11:02:15;;;;;;;6.95;4.47;;;12.30;99.90;;;13.51;74.04;100716.31;4994936;28;20035;-79
2020/12/16 11:04:41;;;;;;;9.27;4.95;;;12.40;99.90;;;13.41;74.33;100719.75;4997147;28;20049;-80
2020/12/16 11:07:08;;;;;;;8.90;4.65;;;12.40;99.90;;;13.37;74.70;100722.50;4997619;28;20363;-78
2020/12/16 11:09:34;;;;;;;5.28;4.07;;;12.40;99.90;;;13.57;73.09;100726.03;4977687;28;20031;-79
2020/12/16 11:21:45;;;;;;;;;;;;;;;;;;;;;
2020/12/16 11:26:17;;;;;;;;;;;;;;;;;;;;;
2020/12/16 11:34:29;;;;;;;;;;;;;;;;;;;;;
2020/12/16 11:54:32;;;;;;;2.97;2.28;;;13.50;99.90;;;14.83;69.42;100684.00;4960333;29;20063;-81
2020/12/16 11:57:00;;;;;;;4.35;2.88;;;13.60;99.90;;;14.80;69.16;100681.16;4959956;28;20049;-78
2020/12/16 11:59:26;;;;;;;4.68;2.60;;;13.60;99.90;;;14.98;68.63;100676.50;4986450;28;20030;-81
2020/12/16 12:02:02;;;;;;;3.92;2.65;;;13.70;99.90;;;15.08;69.59;100684.25;4989105;28;20419;-80
2020/12/16 12:04:28;;;;;;;2.38;2.03;;;13.80;99.90;;;15.28;68.75;100675.16;4970741;28;20037;-79
2020/12/16 12:06:55;;;;;;;2.53;2.33;;;14.00;99.90;;;15.19;67.76;100683.13;4988359;28;20027;-80
2020/12/16 12:09:25;;;;;;;4.03;2.13;;;14.00;99.90;;;15.29;68.13;100685.25;4990112;28;20075;-80
2020/12/16 12:11:52;;;;;;;3.95;2.20;;;14.10;99.90;;;15.30;67.70;100692.50;4989457;28;20023;-79
2020/12/16 12:14:20;;;;;;;3.65;2.03;;;14.10;99.90;;;15.09;67.49;100689.47;4987829;28;20115;-79
2020/12/16 12:16:55;;;;;;;2.33;2.05;;;14.00;99.90;;;15.06;68.09;100681.81;4990434;28;20027;-81
2020/12/16 12:19:21;;;;;;;1.90;1.67;;;13.90;99.90;;;14.92;68.87;100692.94;4989343;28;20638;-81
2020/12/16 12:21:48;;;;;;;2.40;1.90;;;13.70;99.90;;;14.69;69.40;100686.66;4989668;28;20531;-79
2020/12/16 12:24:15;;;;;;;2.60;2.00;;;13.50;99.90;;;14.42;70.79;100696.38;4988087;28;20037;-82